createdAt,value
2018-05-24T00:00:08.478Z,99.60
2018-05-24T00:05:11.738Z,99.60
2018-05-24T00:10:14.959Z,99.60
2018-05-24T00:15:18.217Z,99.60
2018-05-24T00:20:22.338Z,98.90
2018-05-24T00:25:25.974Z,98.80
2018-05-24T00:30:29.218Z,98.80
2018-05-24T00:35:32.481Z,99.00
2018-05-24T00:40:35.710Z,98.80
2018-05-24T00:45:38.941Z,98.40
2018-05-24T00:50:42.207Z,97.90
2018-05-24T00:55:45.489Z,98.30
2018-05-24T01:00:49.117Z,98.70
2018-05-24T01:05:52.328Z,98.70
2018-05-24T01:10:55.536Z,99.10
2018-05-24T01:15:59.554Z,99.60
2018-05-24T01:21:02.785Z,99.60
2018-05-24T01:26:06.053Z,99.60
2018-05-24T01:31:09.292Z,99.60
2018-05-24T01:36:12.662Z,99.60
2018-05-24T01:41:15.911Z,99.60
2018-05-24T01:46:19.992Z,99.60
2018-05-24T01:51:23.220Z,99.60
2018-05-24T01:56:26.858Z,99.60
2018-05-24T02:01:30.798Z,99.60
2018-05-24T02:06:34.039Z,99.60
2018-05-24T02:11:37.279Z,99.60
2018-05-24T02:16:40.520Z,99.60
2018-05-24T02:21:43.996Z,99.60
2018-05-24T02:26:47.235Z,99.60
2018-05-24T02:31:50.481Z,99.60
2018-05-24T02:36:53.690Z,99.60
2018-05-24T02:41:57.321Z,99.60
2018-05-24T02:47:00.551Z,99.60
2018-05-24T02:52:03.910Z,99.60
2018-05-24T02:57:07.325Z,99.60
2018-05-24T03:02:10.965Z,99.60
2018-05-24T03:07:14.876Z,99.60
2018-05-24T03:12:18.267Z,99.60
2018-05-24T03:17:21.900Z,99.60
2018-05-24T03:22:25.542Z,99.60
2018-05-24T03:27:28.783Z,99.60
2018-05-24T03:32:32.006Z,99.60
2018-05-24T03:37:36.027Z,99.60
2018-05-24T03:42:39.443Z,99.60
2018-05-24T03:47:42.743Z,99.60
2018-05-24T03:52:45.961Z,99.60
2018-05-24T03:57:49.661Z,99.60
2018-05-24T04:03:04.758Z,99.60
2018-05-24T04:08:08.448Z,99.60
2018-05-24T04:13:11.678Z,99.60
2018-05-24T04:18:15.292Z,99.60
2018-05-24T04:23:18.551Z,99.60
2018-05-24T04:28:21.772Z,99.60
2018-05-24T04:33:25.009Z,99.60
2018-05-24T04:38:28.728Z,99.60
2018-05-24T04:43:32.353Z,99.60
2018-05-24T04:48:35.996Z,99.60
2018-05-24T04:53:39.221Z,99.60
2018-05-24T04:58:42.562Z,99.60
2018-05-24T05:03:45.803Z,99.60
2018-05-24T05:08:49.059Z,99.60
2018-05-24T05:13:52.380Z,99.60
2018-05-24T05:18:55.802Z,99.60
2018-05-24T05:23:59.538Z,98.40
2018-05-24T05:29:03.098Z,98.40
2018-05-24T05:34:06.371Z,98.50
2018-05-24T05:39:09.595Z,99.00
2018-05-24T05:44:12.810Z,97.80
2018-05-24T05:49:16.036Z,98.90
2018-05-24T05:54:19.372Z,99.10
2018-05-24T05:59:23.076Z,99.10
2018-05-24T06:04:26.708Z,99.60
2018-05-24T06:09:30.511Z,98.50
2018-05-24T06:14:34.288Z,99.10
2018-05-24T06:19:38.481Z,99.10
2018-05-24T06:24:41.761Z,99.10
2018-05-24T06:29:45.081Z,97.20
2018-05-24T06:34:48.704Z,95.60
2018-05-24T06:39:51.947Z,95.60
2018-05-24T06:44:55.205Z,94.00
2018-05-24T06:49:58.913Z,93.20
2018-05-24T06:55:02.143Z,93.20
2018-05-24T07:00:05.533Z,94.40
2018-05-24T07:05:08.792Z,92.70
2018-05-24T07:10:12.062Z,92.70
2018-05-24T07:15:15.337Z,92.00
2018-05-24T07:20:18.675Z,91.80
2018-05-24T07:25:22.554Z,91.70
2018-05-24T07:30:25.765Z,91.30
2018-05-24T07:35:29.206Z,90.60
2018-05-24T07:40:32.828Z,91.50
2018-05-24T07:45:36.075Z,91.50
2018-05-24T07:50:40.086Z,90.50
2018-05-24T07:55:43.437Z,89.40
2018-05-24T08:00:46.664Z,90.60
2018-05-24T08:05:50.013Z,90.20
2018-05-24T08:10:53.460Z,90.90
2018-05-24T08:15:57.611Z,90.20
2018-05-24T08:21:00.849Z,90.20
2018-05-24T08:26:04.299Z,89.30
2018-05-24T08:31:07.520Z,88.70
2018-05-24T08:36:11.515Z,85.50
2018-05-24T08:41:14.805Z,85.50
2018-05-24T08:46:18.247Z,85.90
2018-05-24T08:51:21.881Z,85.40
2018-05-24T08:56:25.686Z,84.90
2018-05-24T09:01:29.832Z,86.50
2018-05-24T09:06:33.433Z,85.20
2018-05-24T09:11:37.147Z,84.20
2018-05-24T09:16:40.888Z,82.10
2018-05-24T09:21:44.232Z,82.10
2018-05-24T09:26:47.464Z,83.40
2018-05-24T09:31:51.082Z,84.20
2018-05-24T09:36:54.781Z,85.00
2018-05-24T09:41:58.038Z,85.10
2018-05-24T09:47:01.485Z,83.20
2018-05-24T09:52:04.800Z,82.10
2018-05-24T09:57:08.127Z,82.20
2018-05-24T10:02:11.864Z,80.80
2018-05-24T10:07:15.228Z,80.80
2018-05-24T10:12:18.583Z,80.50
2018-05-24T10:17:21.969Z,82.40
2018-05-24T10:22:25.306Z,81.50
2018-05-24T10:27:28.565Z,82.10
2018-05-24T10:32:31.901Z,81.30
2018-05-24T10:37:35.561Z,79.60
2018-05-24T10:42:38.840Z,79.60
2018-05-24T10:47:42.195Z,78.70
2018-05-24T10:52:45.425Z,80.50
2018-05-24T10:57:49.108Z,80.40
2018-05-24T11:02:52.326Z,80.30
2018-05-24T11:07:55.565Z,79.80
2018-05-24T11:12:59.281Z,75.70
2018-05-24T11:18:02.986Z,77.40
2018-05-24T11:23:06.841Z,76.00
2018-05-24T11:28:10.246Z,76.00
2018-05-24T11:33:13.605Z,75.40
2018-05-24T11:38:16.853Z,73.20
2018-05-24T11:43:20.250Z,73.00
2018-05-24T11:48:23.961Z,72.90
2018-05-24T11:53:27.586Z,69.90
2018-05-24T11:58:30.874Z,69.90
2018-05-24T12:03:34.210Z,69.10
2018-05-24T12:08:37.461Z,66.40
2018-05-24T12:13:41.135Z,62.90
2018-05-24T12:18:44.353Z,62.90
2018-05-24T12:23:48.391Z,62.90
2018-05-24T12:28:51.591Z,63.10
2018-05-24T12:33:54.845Z,59.90
2018-05-24T12:38:58.795Z,59.40
2018-05-24T12:44:02.037Z,59.40
2018-05-24T12:49:05.397Z,57.10
2018-05-24T12:54:08.561Z,58.00
2018-05-24T12:59:11.795Z,60.20
2018-05-24T13:04:15.450Z,56.30
2018-05-24T13:09:18.712Z,56.30
2018-05-24T13:14:22.326Z,54.90
2018-05-24T13:19:26.758Z,55.60
2018-05-24T13:24:30.570Z,55.10
2018-05-24T13:29:33.727Z,55.10
2018-05-24T13:34:37.000Z,55.70
2018-05-24T13:39:40.627Z,54.50
2018-05-24T13:44:43.870Z,54.50
2018-05-24T13:49:47.078Z,58.20
2018-05-24T13:54:50.325Z,57.30
2018-05-24T13:59:53.577Z,57.10
2018-05-24T14:04:56.831Z,58.00
2018-05-24T14:10:00.475Z,57.90
2018-05-24T14:15:03.856Z,57.90
2018-05-24T14:20:07.557Z,54.90
2018-05-24T14:25:11.164Z,54.50
2018-05-24T14:30:14.832Z,55.30
2018-05-24T14:35:18.049Z,55.30
2018-05-24T14:40:21.382Z,54.20
2018-05-24T14:45:25.173Z,55.70
2018-05-24T14:50:28.411Z,55.70
2018-05-24T14:55:32.033Z,58.00
2018-05-24T15:00:35.260Z,58.00
2018-05-24T15:05:38.516Z,56.20
2018-05-24T15:10:42.265Z,55.30
2018-05-24T15:15:45.655Z,55.30
2018-05-24T15:20:49.504Z,57.50
2018-05-24T15:25:52.854Z,64.50
2018-05-24T15:30:56.507Z,65.80
2018-05-24T15:35:59.747Z,65.80
2018-05-24T15:41:03.070Z,66.00
2018-05-24T15:46:06.715Z,57.80
2018-05-24T15:51:10.710Z,57.80
2018-05-24T15:56:14.338Z,57.40
2018-05-24T16:01:18.943Z,55.90
2018-05-24T16:06:22.558Z,55.30
2018-05-24T16:11:26.188Z,54.60
2018-05-24T16:16:29.422Z,54.50
2018-05-24T16:21:32.670Z,54.50
2018-05-24T16:26:36.278Z,54.20
2018-05-24T16:31:39.901Z,54.10
2018-05-24T16:36:43.117Z,54.10
2018-05-24T16:41:47.143Z,54.20
2018-05-24T16:46:50.505Z,54.00
2018-05-24T16:51:53.913Z,54.20
2018-05-24T16:56:57.597Z,54.20
2018-05-24T17:02:00.908Z,54.20
2018-05-24T17:07:04.233Z,53.80
2018-05-24T17:12:07.917Z,54.60
2018-05-24T17:17:11.152Z,54.60
2018-05-24T17:22:14.855Z,62.50
2018-05-24T17:27:18.580Z,66.70
2018-05-24T17:32:22.902Z,69.20
2018-05-24T17:37:26.599Z,69.20
2018-05-24T17:42:31.241Z,69.30
2018-05-24T17:47:34.672Z,70.20
2018-05-24T17:52:37.955Z,72.00
2018-05-24T17:57:42.663Z,75.70
2018-05-24T18:02:46.836Z,75.70
2018-05-24T18:07:50.310Z,76.90
2018-05-24T18:12:53.604Z,77.90
2018-05-24T18:17:57.124Z,78.60
2018-05-24T18:23:00.781Z,78.10
2018-05-24T18:28:04.154Z,78.10
2018-05-24T18:33:07.383Z,78.30
2018-05-24T18:38:10.615Z,79.90
2018-05-24T18:43:13.941Z,79.10
2018-05-24T18:48:17.602Z,80.30
2018-05-24T18:53:20.929Z,80.30
2018-05-24T18:58:24.761Z,81.10
2018-05-24T19:03:28.114Z,80.40
2018-05-24T19:08:31.358Z,80.10
2018-05-24T19:13:34.661Z,79.30
2018-05-24T19:18:37.986Z,79.70
2018-05-24T19:23:42.425Z,80.20
2018-05-24T19:28:45.921Z,80.20
2018-05-24T19:33:49.644Z,81.20
2018-05-24T19:38:53.323Z,81.80
2018-05-24T19:43:56.655Z,81.80
2018-05-24T19:49:00.361Z,82.80
2018-05-24T19:54:03.986Z,83.40
2018-05-24T19:59:07.646Z,83.70
2018-05-24T20:04:11.337Z,83.70
2018-05-24T20:09:15.075Z,84.20
2018-05-24T20:14:18.867Z,84.00
2018-05-24T20:19:22.578Z,84.30
2018-05-24T20:24:26.291Z,85.20
2018-05-24T20:29:30.108Z,86.40
2018-05-24T20:34:34.030Z,86.80
2018-05-24T20:39:37.743Z,87.20
2018-05-24T20:44:41.058Z,87.80
2018-05-24T20:49:44.561Z,88.50
2018-05-24T20:54:47.834Z,88.90
2018-05-24T20:59:51.442Z,89.00
2018-05-24T21:04:54.755Z,89.00
2018-05-24T21:09:58.473Z,88.80
2018-05-24T21:15:01.703Z,88.80
2018-05-24T21:20:05.656Z,89.10
2018-05-24T21:25:08.918Z,88.80
2018-05-24T21:30:12.551Z,89.30
2018-05-24T21:35:15.787Z,89.30
2018-05-24T21:40:19.122Z,89.80
2018-05-24T21:45:22.740Z,90.10
2018-05-24T21:50:26.390Z,90.70
2018-05-24T21:55:29.630Z,90.70
2018-05-24T22:00:32.967Z,91.10
2018-05-24T22:05:37.047Z,92.10
2018-05-24T22:10:40.264Z,92.10
2018-05-24T22:15:43.479Z,93.00
2018-05-24T22:20:46.727Z,94.10
2018-05-24T22:25:49.962Z,94.30
2018-05-24T22:30:53.187Z,93.90
2018-05-24T22:35:56.421Z,93.50
2018-05-24T22:41:00.104Z,93.20
2018-05-24T22:46:03.341Z,93.10
2018-05-24T22:51:06.994Z,93.50
2018-05-24T22:56:10.244Z,93.50
2018-05-24T23:01:13.554Z,94.00
2018-05-24T23:06:16.785Z,94.20
2018-05-24T23:11:20.008Z,94.40
2018-05-24T23:16:23.239Z,94.20
2018-05-24T23:21:26.460Z,93.70
2018-05-24T23:26:29.702Z,93.50
2018-05-24T23:31:32.974Z,93.80
2018-05-24T23:36:36.373Z,94.60
2018-05-24T23:41:39.717Z,95.10
2018-05-24T23:46:43.664Z,96.90
2018-05-24T23:51:46.964Z,97.00
2018-05-24T23:56:50.477Z,97.20
